sensor_id;sensor_type;location;lat;lon;timestamp;P1;durP1;ratioP1;P2;durP2;ratioP2
22525;SDS011;11429;50.842;4.386;2022-11-21T00:00:24;8.40;;;3.15;;
22525;SDS011;11429;50.842;4.386;2022-11-21T00:02:50;8.18;;;3.15;;
22525;SDS011;11429;50.842;4.386;2022-11-21T00:05:16;9.43;;;3.03;;
22525;SDS011;11429;50.842;4.386;2022-11-21T00:07:42;15.20;;;3.40;;
22525;SDS011;11429;50.842;4.386;2022-11-21T00:10:10;10.65;;;3.50;;
22525;SDS011;11429;50.842;4.386;2022-11-21T00:12:38;16.10;;;4.22;;
22525;SDS011;11429;50.842;4.386;2022-11-21T00:15:04;14.23;;;3.75;;
22525;SDS011;11429;50.842;4.386;2022-11-21T00:17:30;12.93;;;4.78;;
22525;SDS011;11429;50.842;4.386;2022-11-21T00:19:56;13.32;;;3.90;;
22525;SDS011;11429;50.842;4.386;2022-11-21T00:22:21;14.45;;;4.45;;
22525;SDS011;11429;50.842;4.386;2022-11-21T00:24:47;15.25;;;3.85;;
22525;SDS011;11429;50.842;4.386;2022-11-21T00:27:13;13.75;;;3.58;;
22525;SDS011;11429;50.842;4.386;2022-11-21T00:29:38;12.52;;;4.18;;
22525;SDS011;11429;50.842;4.386;2022-11-21T00:32:04;13.93;;;3.55;;
22525;SDS011;11429;50.842;4.386;2022-11-21T00:34:30;11.40;;;3.85;;
22525;SDS011;11429;50.842;4.386;2022-11-21T00:36:55;12.95;;;4.57;;
22525;SDS011;11429;50.842;4.386;2022-11-21T00:39:21;14.50;;;4.85;;
22525;SDS011;11429;50.842;4.386;2022-11-21T00:41:46;11.30;;;4.32;;
22525;SDS011;11429;50.842;4.386;2022-11-21T00:44:12;12.40;;;3.92;;
22525;SDS011;11429;50.842;4.386;2022-11-21T00:46:38;16.67;;;3.70;;
22525;SDS011;11429;50.842;4.386;2022-11-21T00:49:03;10.82;;;3.85;;
22525;SDS011;11429;50.842;4.386;2022-11-21T00:51:29;14.25;;;3.97;;
22525;SDS011;11429;50.842;4.386;2022-11-21T00:53:54;14.80;;;3.97;;
22525;SDS011;11429;50.842;4.386;2022-11-21T00:56:20;9.98;;;3.60;;
22525;SDS011;11429;50.842;4.386;2022-11-21T00:58:46;12.30;;;3.17;;
22525;SDS011;11429;50.842;4.386;2022-11-21T01:01:12;10.27;;;3.50;;
22525;SDS011;11429;50.842;4.386;2022-11-21T01:03:39;13.55;;;3.38;;
22525;SDS011;11429;50.842;4.386;2022-11-21T01:06:06;10.15;;;3.03;;
22525;SDS011;11429;50.842;4.386;2022-11-21T01:08:34;12.77;;;3.40;;
22525;SDS011;11429;50.842;4.386;2022-11-21T01:11:02;11.10;;;2.78;;
22525;SDS011;11429;50.842;4.386;2022-11-21T01:13:32;14.13;;;3.35;;
22525;SDS011;11429;50.842;4.386;2022-11-21T01:16:05;10.73;;;3.67;;
22525;SDS011;11429;50.842;4.386;2022-11-21T01:18:33;8.77;;;2.88;;
22525;SDS011;11429;50.842;4.386;2022-11-21T01:21:03;10.70;;;3.38;;
22525;SDS011;11429;50.842;4.386;2022-11-21T01:23:39;8.18;;;3.40;;
22525;SDS011;11429;50.842;4.386;2022-11-21T01:26:11;7.05;;;2.83;;
22525;SDS011;11429;50.842;4.386;2022-11-21T01:28:38;9.73;;;3.05;;
22525;SDS011;11429;50.842;4.386;2022-11-21T01:31:05;10.50;;;3.10;;
22525;SDS011;11429;50.842;4.386;2022-11-21T01:33:35;9.93;;;3.28;;
22525;SDS011;11429;50.842;4.386;2022-11-21T01:36:06;13.65;;;3.38;;
22525;SDS011;11429;50.842;4.386;2022-11-21T01:38:32;8.63;;;3.22;;
22525;SDS011;11429;50.842;4.386;2022-11-21T01:40:57;8.75;;;2.85;;
22525;SDS011;11429;50.842;4.386;2022-11-21T01:43:23;9.63;;;3.60;;
22525;SDS011;11429;50.842;4.386;2022-11-21T01:45:50;11.77;;;2.67;;
22525;SDS011;11429;50.842;4.386;2022-11-21T01:51:28;9.90;;;3.55;;
22525;SDS011;11429;50.842;4.386;2022-11-21T01:54:08;13.60;;;3.33;;
22525;SDS011;11429;50.842;4.386;2022-11-21T01:57:00;11.10;;;3.05;;
22525;SDS011;11429;50.842;4.386;2022-11-21T02:02:22;9.05;;;3.17;;
22525;SDS011;11429;50.842;4.386;2022-11-21T02:04:51;13.55;;;3.28;;
22525;SDS011;11429;50.842;4.386;2022-11-21T02:07:18;11.65;;;2.97;;
22525;SDS011;11429;50.842;4.386;2022-11-21T02:09:50;9.68;;;2.50;;
22525;SDS011;11429;50.842;4.386;2022-11-21T02:12:56;11.70;;;3.13;;
22525;SDS011;11429;50.842;4.386;2022-11-21T02:15:17;9.05;;;3.08;;
22525;SDS011;11429;50.842;4.386;2022-11-21T02:17:44;12.50;;;3.35;;
22525;SDS011;11429;50.842;4.386;2022-11-21T02:20:10;11.13;;;3.17;;
22525;SDS011;11429;50.842;4.386;2022-11-21T02:22:59;12.55;;;3.40;;
22525;SDS011;11429;50.842;4.386;2022-11-21T02:25:40;9.63;;;2.90;;
22525;SDS011;11429;50.842;4.386;2022-11-21T02:28:11;8.50;;;2.88;;
22525;SDS011;11429;50.842;4.386;2022-11-21T02:30:40;6.18;;;2.60;;
22525;SDS011;11429;50.842;4.386;2022-11-21T02:33:07;8.57;;;2.85;;
22525;SDS011;11429;50.842;4.386;2022-11-21T02:35:33;10.48;;;2.40;;
22525;SDS011;11429;50.842;4.386;2022-11-21T02:38:01;12.85;;;2.97;;
22525;SDS011;11429;50.842;4.386;2022-11-21T02:40:32;11.13;;;2.83;;
22525;SDS011;11429;50.842;4.386;2022-11-21T02:45:49;11.73;;;2.92;;
22525;SDS011;11429;50.842;4.386;2022-11-21T02:48:14;12.23;;;2.58;;
22525;SDS011;11429;50.842;4.386;2022-11-21T02:50:44;7.82;;;2.40;;
22525;SDS011;11429;50.842;4.386;2022-11-21T02:53:12;11.95;;;2.80;;
22525;SDS011;11429;50.842;4.386;2022-11-21T02:55:39;10.30;;;2.17;;
22525;SDS011;11429;50.842;4.386;2022-11-21T02:58:05;13.32;;;3.88;;
22525;SDS011;11429;50.842;4.386;2022-11-21T03:00:32;6.07;;;2.40;;
22525;SDS011;11429;50.842;4.386;2022-11-21T03:02:58;10.00;;;2.63;;
22525;SDS011;11429;50.842;4.386;2022-11-21T03:05:24;6.43;;;2.20;;
22525;SDS011;11429;50.842;4.386;2022-11-21T03:07:50;8.57;;;2.72;;
22525;SDS011;11429;50.842;4.386;2022-11-21T03:10:16;12.05;;;2.53;;
22525;SDS011;11429;50.842;4.386;2022-11-21T03:12:42;7.82;;;2.40;;
22525;SDS011;11429;50.842;4.386;2022-11-21T03:15:09;8.60;;;2.65;;
22525;SDS011;11429;50.842;4.386;2022-11-21T03:17:36;7.55;;;2.22;;
22525;SDS011;11429;50.842;4.386;2022-11-21T03:20:02;6.75;;;2.15;;
22525;SDS011;11429;50.842;4.386;2022-11-21T03:22:29;8.57;;;2.42;;
22525;SDS011;11429;50.842;4.386;2022-11-21T03:24:54;13.43;;;2.58;;
22525;SDS011;11429;50.842;4.386;2022-11-21T03:27:20;7.75;;;2.38;;
22525;SDS011;11429;50.842;4.386;2022-11-21T03:29:46;7.18;;;2.15;;
22525;SDS011;11429;50.842;4.386;2022-11-21T03:32:11;9.10;;;2.30;;
22525;SDS011;11429;50.842;4.386;2022-11-21T03:34:37;6.32;;;2.25;;
22525;SDS011;11429;50.842;4.386;2022-11-21T03:37:02;5.40;;;2.00;;
22525;SDS011;11429;50.842;4.386;2022-11-21T03:39:28;11.88;;;2.60;;
22525;SDS011;11429;50.842;4.386;2022-11-21T03:41:54;7.72;;;2.33;;
22525;SDS011;11429;50.842;4.386;2022-11-21T03:44:20;7.32;;;2.05;;
22525;SDS011;11429;50.842;4.386;2022-11-21T03:46:46;10.52;;;2.85;;
22525;SDS011;11429;50.842;4.386;2022-11-21T03:49:12;6.82;;;2.10;;
22525;SDS011;11429;50.842;4.386;2022-11-21T03:51:40;12.20;;;2.50;;
22525;SDS011;11429;50.842;4.386;2022-11-21T03:54:07;6.35;;;2.63;;
22525;SDS011;11429;50.842;4.386;2022-11-21T03:56:33;8.05;;;3.08;;
22525;SDS011;11429;50.842;4.386;2022-11-21T03:59:00;11.25;;;2.83;;
22525;SDS011;11429;50.842;4.386;2022-11-21T04:01:26;10.27;;;3.05;;
22525;SDS011;11429;50.842;4.386;2022-11-21T04:03:52;9.90;;;2.67;;
22525;SDS011;11429;50.842;4.386;2022-11-21T04:06:18;8.25;;;3.03;;
22525;SDS011;11429;50.842;4.386;2022-11-21T04:08:45;9.23;;;3.00;;
22525;SDS011;11429;50.842;4.386;2022-11-21T04:11:11;9.25;;;3.20;;
22525;SDS011;11429;50.842;4.386;2022-11-21T04:13:37;15.10;;;3.65;;
22525;SDS011;11429;50.842;4.386;2022-11-21T04:16:03;11.38;;;3.00;;
22525;SDS011;11429;50.842;4.386;2022-11-21T04:18:28;8.68;;;2.50;;
22525;SDS011;11429;50.842;4.386;2022-11-21T04:20:58;13.48;;;3.38;;
22525;SDS011;11429;50.842;4.386;2022-11-21T04:23:25;13.82;;;2.97;;
22525;SDS011;11429;50.842;4.386;2022-11-21T04:25:51;7.80;;;2.95;;
22525;SDS011;11429;50.842;4.386;2022-11-21T04:28:18;9.02;;;3.13;;
22525;SDS011;11429;50.842;4.386;2022-11-21T04:30:43;8.38;;;3.13;;
22525;SDS011;11429;50.842;4.386;2022-11-21T04:33:12;10.85;;;3.03;;
22525;SDS011;11429;50.842;4.386;2022-11-21T04:35:39;8.80;;;2.60;;
22525;SDS011;11429;50.842;4.386;2022-11-21T04:38:07;9.50;;;3.17;;
22525;SDS011;11429;50.842;4.386;2022-11-21T04:40:33;10.00;;;3.17;;
22525;SDS011;11429;50.842;4.386;2022-11-21T04:42:59;6.05;;;2.42;;
22525;SDS011;11429;50.842;4.386;2022-11-21T04:45:25;9.75;;;3.38;;
22525;SDS011;11429;50.842;4.386;2022-11-21T04:47:50;9.55;;;3.13;;
22525;SDS011;11429;50.842;4.386;2022-11-21T04:50:16;9.23;;;3.25;;
22525;SDS011;11429;50.842;4.386;2022-11-21T04:52:53;7.80;;;2.72;;
22525;SDS011;11429;50.842;4.386;2022-11-21T04:55:21;8.57;;;2.78;;
22525;SDS011;11429;50.842;4.386;2022-11-21T04:57:48;8.43;;;3.00;;
22525;SDS011;11429;50.842;4.386;2022-11-21T05:00:14;14.18;;;3.58;;
22525;SDS011;11429;50.842;4.386;2022-11-21T05:02:40;10.27;;;3.22;;
22525;SDS011;11429;50.842;4.386;2022-11-21T05:05:06;7.97;;;2.95;;
22525;SDS011;11429;50.842;4.386;2022-11-21T05:07:32;6.65;;;2.70;;
22525;SDS011;11429;50.842;4.386;2022-11-21T05:09:58;13.75;;;2.75;;
22525;SDS011;11429;50.842;4.386;2022-11-21T05:12:24;8.07;;;2.97;;
22525;SDS011;11429;50.842;4.386;2022-11-21T05:15:08;9.25;;;2.75;;
22525;SDS011;11429;50.842;4.386;2022-11-21T05:17:34;11.82;;;3.05;;
22525;SDS011;11429;50.842;4.386;2022-11-21T05:20:00;6.82;;;2.92;;
22525;SDS011;11429;50.842;4.386;2022-11-21T05:22:26;9.43;;;2.90;;
22525;SDS011;11429;50.842;4.386;2022-11-21T05:24:51;8.90;;;2.30;;
22525;SDS011;11429;50.842;4.386;2022-11-21T05:27:17;8.05;;;3.08;;
22525;SDS011;11429;50.842;4.386;2022-11-21T05:29:42;9.55;;;2.70;;
22525;SDS011;11429;50.842;4.386;2022-11-21T05:32:08;5.75;;;2.25;;
22525;SDS011;11429;50.842;4.386;2022-11-21T05:34:34;8.38;;;2.72;;
22525;SDS011;11429;50.842;4.386;2022-11-21T05:36:59;8.85;;;2.20;;
22525;SDS011;11429;50.842;4.386;2022-11-21T05:39:25;10.20;;;2.20;;
22525;SDS011;11429;50.842;4.386;2022-11-21T05:41:51;8.65;;;2.78;;
22525;SDS011;11429;50.842;4.386;2022-11-21T05:44:17;8.02;;;2.75;;
22525;SDS011;11429;50.842;4.386;2022-11-21T05:46:43;14.57;;;2.97;;
22525;SDS011;11429;50.842;4.386;2022-11-21T05:49:09;10.15;;;2.17;;
22525;SDS011;11429;50.842;4.386;2022-11-21T05:51:35;9.77;;;2.30;;
22525;SDS011;11429;50.842;4.386;2022-11-21T05:54:01;8.77;;;3.22;;
22525;SDS011;11429;50.842;4.386;2022-11-21T05:56:27;9.20;;;2.80;;
22525;SDS011;11429;50.842;4.386;2022-11-21T05:58:56;9.52;;;2.63;;
22525;SDS011;11429;50.842;4.386;2022-11-21T06:01:22;10.07;;;2.80;;
22525;SDS011;11429;50.842;4.386;2022-11-21T06:04:07;13.20;;;3.00;;
22525;SDS011;11429;50.842;4.386;2022-11-21T06:06:33;12.55;;;2.90;;
22525;SDS011;11429;50.842;4.386;2022-11-21T06:08:59;8.18;;;2.20;;
22525;SDS011;11429;50.842;4.386;2022-11-21T06:11:25;9.73;;;2.90;;
22525;SDS011;11429;50.842;4.386;2022-11-21T06:13:51;7.70;;;2.53;;
22525;SDS011;11429;50.842;4.386;2022-11-21T06:16:17;10.02;;;3.00;;
22525;SDS011;11429;50.842;4.386;2022-11-21T06:18:45;10.40;;;2.55;;
22525;SDS011;11429;50.842;4.386;2022-11-21T06:21:16;9.52;;;2.47;;
22525;SDS011;11429;50.842;4.386;2022-11-21T06:23:44;9.75;;;2.42;;
22525;SDS011;11429;50.842;4.386;2022-11-21T06:26:10;7.80;;;2.30;;
22525;SDS011;11429;50.842;4.386;2022-11-21T06:28:38;9.90;;;2.50;;
22525;SDS011;11429;50.842;4.386;2022-11-21T06:31:06;8.95;;;2.13;;
22525;SDS011;11429;50.842;4.386;2022-11-21T06:33:36;6.68;;;2.53;;
22525;SDS011;11429;50.842;4.386;2022-11-21T06:36:03;10.43;;;2.50;;
22525;SDS011;11429;50.842;4.386;2022-11-21T06:38:31;11.77;;;2.58;;
22525;SDS011;11429;50.842;4.386;2022-11-21T06:40:57;14.95;;;2.90;;
22525;SDS011;11429;50.842;4.386;2022-11-21T06:43:27;6.57;;;2.55;;
22525;SDS011;11429;50.842;4.386;2022-11-21T06:45:54;11.32;;;2.70;;
22525;SDS011;11429;50.842;4.386;2022-11-21T06:48:20;5.90;;;2.30;;
22525;SDS011;11429;50.842;4.386;2022-11-21T06:50:46;11.73;;;2.28;;
22525;SDS011;11429;50.842;4.386;2022-11-21T06:53:12;12.00;;;2.83;;
22525;SDS011;11429;50.842;4.386;2022-11-21T06:55:37;11.07;;;2.80;;
22525;SDS011;11429;50.842;4.386;2022-11-21T06:58:03;12.15;;;4.15;;
22525;SDS011;11429;50.842;4.386;2022-11-21T07:00:29;7.35;;;2.88;;
22525;SDS011;11429;50.842;4.386;2022-11-21T07:02:58;8.10;;;2.60;;
22525;SDS011;11429;50.842;4.386;2022-11-21T07:05:28;9.68;;;2.83;;
22525;SDS011;11429;50.842;4.386;2022-11-21T07:07:58;12.30;;;3.40;;
22525;SDS011;11429;50.842;4.386;2022-11-21T07:10:24;11.70;;;3.40;;
22525;SDS011;11429;50.842;4.386;2022-11-21T07:12:50;10.10;;;2.63;;
22525;SDS011;11429;50.842;4.386;2022-11-21T07:15:34;11.65;;;2.78;;
22525;SDS011;11429;50.842;4.386;2022-11-21T07:18:00;16.08;;;3.05;;
22525;SDS011;11429;50.842;4.386;2022-11-21T07:20:26;10.25;;;2.60;;
22525;SDS011;11429;50.842;4.386;2022-11-21T07:22:52;9.48;;;2.65;;
22525;SDS011;11429;50.842;4.386;2022-11-21T07:25:19;7.55;;;2.90;;
22525;SDS011;11429;50.842;4.386;2022-11-21T07:27:45;11.38;;;2.80;;
22525;SDS011;11429;50.842;4.386;2022-11-21T07:30:11;11.73;;;2.55;;
22525;SDS011;11429;50.842;4.386;2022-11-21T07:32:38;11.27;;;2.67;;
22525;SDS011;11429;50.842;4.386;2022-11-21T07:35:04;12.63;;;2.80;;
22525;SDS011;11429;50.842;4.386;2022-11-21T07:37:30;8.65;;;3.22;;
22525;SDS011;11429;50.842;4.386;2022-11-21T07:39:56;14.23;;;3.13;;
22525;SDS011;11429;50.842;4.386;2022-11-21T07:42:21;9.30;;;2.65;;
22525;SDS011;11429;50.842;4.386;2022-11-21T07:44:47;9.52;;;2.67;;
22525;SDS011;11429;50.842;4.386;2022-11-21T07:47:13;15.93;;;3.78;;
22525;SDS011;11429;50.842;4.386;2022-11-21T07:49:38;12.88;;;3.85;;
22525;SDS011;11429;50.842;4.386;2022-11-21T07:52:04;13.85;;;4.03;;
22525;SDS011;11429;50.842;4.386;2022-11-21T07:54:30;14.15;;;4.22;;
22525;SDS011;11429;50.842;4.386;2022-11-21T07:56:55;16.98;;;4.78;;
22525;SDS011;11429;50.842;4.386;2022-11-21T07:59:21;18.02;;;5.88;;
22525;SDS011;11429;50.842;4.386;2022-11-21T08:01:47;24.27;;;6.05;;
22525;SDS011;11429;50.842;4.386;2022-11-21T08:04:14;20.50;;;5.60;;
22525;SDS011;11429;50.842;4.386;2022-11-21T08:06:40;18.70;;;5.22;;
22525;SDS011;11429;50.842;4.386;2022-11-21T08:09:05;17.00;;;5.57;;
22525;SDS011;11429;50.842;4.386;2022-11-21T08:11:31;16.65;;;6.47;;
22525;SDS011;11429;50.842;4.386;2022-11-21T08:13:57;16.30;;;5.78;;
22525;SDS011;11429;50.842;4.386;2022-11-21T08:16:23;22.02;;;5.10;;
22525;SDS011;11429;50.842;4.386;2022-11-21T08:18:52;18.65;;;4.75;;
22525;SDS011;11429;50.842;4.386;2022-11-21T08:21:18;18.73;;;5.50;;
22525;SDS011;11429;50.842;4.386;2022-11-21T08:23:44;15.13;;;4.32;;
22525;SDS011;11429;50.842;4.386;2022-11-21T08:26:09;17.73;;;4.80;;
22525;SDS011;11429;50.842;4.386;2022-11-21T08:28:35;13.85;;;4.43;;
22525;SDS011;11429;50.842;4.386;2022-11-21T08:31:04;16.48;;;4.05;;
22525;SDS011;11429;50.842;4.386;2022-11-21T08:33:31;15.90;;;4.25;;
22525;SDS011;11429;50.842;4.386;2022-11-21T08:35:57;13.60;;;4.25;;
22525;SDS011;11429;50.842;4.386;2022-11-21T08:38:22;14.43;;;3.70;;
22525;SDS011;11429;50.842;4.386;2022-11-21T08:40:48;12.32;;;3.85;;
22525;SDS011;11429;50.842;4.386;2022-11-21T08:43:37;11.13;;;3.72;;
22525;SDS011;11429;50.842;4.386;2022-11-21T08:46:02;10.27;;;3.05;;
22525;SDS011;11429;50.842;4.386;2022-11-21T08:48:28;11.52;;;3.65;;
22525;SDS011;11429;50.842;4.386;2022-11-21T08:50:55;9.43;;;3.45;;
22525;SDS011;11429;50.842;4.386;2022-11-21T08:53:21;11.57;;;3.45;;
22525;SDS011;11429;50.842;4.386;2022-11-21T08:55:47;10.45;;;3.55;;
22525;SDS011;11429;50.842;4.386;2022-11-21T08:58:13;12.20;;;3.30;;
22525;SDS011;11429;50.842;4.386;2022-11-21T09:00:39;14.00;;;4.30;;
22525;SDS011;11429;50.842;4.386;2022-11-21T09:03:04;12.25;;;3.38;;
22525;SDS011;11429;50.842;4.386;2022-11-21T09:05:31;10.07;;;3.08;;
22525;SDS011;11429;50.842;4.386;2022-11-21T09:07:57;15.98;;;3.58;;
22525;SDS011;11429;50.842;4.386;2022-11-21T09:10:24;18.70;;;7.13;;
22525;SDS011;11429;50.842;4.386;2022-11-21T09:12:56;13.88;;;3.80;;
22525;SDS011;11429;50.842;4.386;2022-11-21T09:15:23;13.40;;;3.58;;
22525;SDS011;11429;50.842;4.386;2022-11-21T09:18:09;13.50;;;3.35;;
22525;SDS011;11429;50.842;4.386;2022-11-21T09:20:42;12.27;;;3.40;;
22525;SDS011;11429;50.842;4.386;2022-11-21T09:23:12;12.25;;;4.05;;
22525;SDS011;11429;50.842;4.386;2022-11-21T09:25:39;12.55;;;2.92;;
22525;SDS011;11429;50.842;4.386;2022-11-21T09:28:06;12.43;;;4.10;;
22525;SDS011;11429;50.842;4.386;2022-11-21T09:30:33;12.25;;;4.30;;
22525;SDS011;11429;50.842;4.386;2022-11-21T09:33:00;11.35;;;2.60;;
22525;SDS011;11429;50.842;4.386;2022-11-21T09:35:27;9.00;;;2.40;;
22525;SDS011;11429;50.842;4.386;2022-11-21T09:37:53;11.52;;;2.83;;
22525;SDS011;11429;50.842;4.386;2022-11-21T09:40:18;9.75;;;2.90;;
22525;SDS011;11429;50.842;4.386;2022-11-21T09:45:21;9.60;;;2.70;;
22525;SDS011;11429;50.842;4.386;2022-11-21T09:47:52;10.77;;;2.50;;
22525;SDS011;11429;50.842;4.386;2022-11-21T09:50:23;11.43;;;2.95;;
22525;SDS011;11429;50.842;4.386;2022-11-21T09:55:48;8.73;;;2.75;;
22525;SDS011;11429;50.842;4.386;2022-11-21T09:58:20;9.70;;;2.70;;
22525;SDS011;11429;50.842;4.386;2022-11-21T10:00:51;8.23;;;3.60;;
22525;SDS011;11429;50.842;4.386;2022-11-21T10:03:17;8.30;;;3.10;;
22525;SDS011;11429;50.842;4.386;2022-11-21T10:05:47;8.13;;;4.10;;
22525;SDS011;11429;50.842;4.386;2022-11-21T10:17:25;8.57;;;4.65;;
22525;SDS011;11429;50.842;4.386;2022-11-21T10:25:27;18.63;;;7.53;;
22525;SDS011;11429;50.842;4.386;2022-11-21T10:30:35;16.55;;;8.02;;
22525;SDS011;11429;50.842;4.386;2022-11-21T10:33:04;15.00;;;7.95;;
22525;SDS011;11429;50.842;4.386;2022-11-21T10:35:46;13.43;;;7.75;;
22525;SDS011;11429;50.842;4.386;2022-11-21T10:38:20;14.00;;;9.02;;
22525;SDS011;11429;50.842;4.386;2022-11-21T10:40:49;14.05;;;8.50;;
22525;SDS011;11429;50.842;4.386;2022-11-21T10:46:05;18.75;;;9.23;;
22525;SDS011;11429;50.842;4.386;2022-11-21T10:48:31;12.85;;;8.55;;
22525;SDS011;11429;50.842;4.386;2022-11-21T10:53:41;13.27;;;8.13;;
22525;SDS011;11429;50.842;4.386;2022-11-21T10:56:25;14.27;;;9.07;;
22525;SDS011;11429;50.842;4.386;2022-11-21T10:58:52;19.50;;;10.10;;
22525;SDS011;11429;50.842;4.386;2022-11-21T11:01:33;13.15;;;7.82;;
22525;SDS011;11429;50.842;4.386;2022-11-21T11:06:37;14.25;;;7.10;;
22525;SDS011;11429;50.842;4.386;2022-11-21T11:09:05;12.80;;;7.38;;
22525;SDS011;11429;50.842;4.386;2022-11-21T11:11:31;12.73;;;7.18;;
22525;SDS011;11429;50.842;4.386;2022-11-21T11:14:05;14.63;;;7.05;;
22525;SDS011;11429;50.842;4.386;2022-11-21T11:16:36;12.48;;;6.40;;
22525;SDS011;11429;50.842;4.386;2022-11-21T11:26:34;14.23;;;6.38;;
22525;SDS011;11429;50.842;4.386;2022-11-21T11:29:18;10.88;;;5.75;;
22525;SDS011;11429;50.842;4.386;2022-11-21T11:34:41;10.70;;;5.07;;
22525;SDS011;11429;50.842;4.386;2022-11-21T11:37:40;16.05;;;6.53;;
22525;SDS011;11429;50.842;4.386;2022-11-21T11:40:43;15.00;;;5.97;;
22525;SDS011;11429;50.842;4.386;2022-11-21T11:43:07;14.68;;;6.75;;
22525;SDS011;11429;50.842;4.386;2022-11-21T11:46:13;14.88;;;5.88;;
22525;SDS011;11429;50.842;4.386;2022-11-21T11:49:07;13.32;;;6.45;;
22525;SDS011;11429;50.842;4.386;2022-11-21T11:51:47;14.93;;;6.07;;
22525;SDS011;11429;50.842;4.386;2022-11-21T11:54:20;17.65;;;6.43;;
22525;SDS011;11429;50.842;4.386;2022-11-21T11:56:50;12.90;;;5.53;;
22525;SDS011;11429;50.842;4.386;2022-11-21T12:04:22;14.13;;;6.15;;
22525;SDS011;11429;50.842;4.386;2022-11-21T12:06:50;13.00;;;5.68;;
22525;SDS011;11429;50.842;4.386;2022-11-21T12:12:09;15.57;;;5.30;;
22525;SDS011;11429;50.842;4.386;2022-11-21T12:14:59;15.75;;;5.28;;
22525;SDS011;11429;50.842;4.386;2022-11-21T12:18:22;15.20;;;5.10;;
22525;SDS011;11429;50.842;4.386;2022-11-21T12:21:12;17.00;;;6.55;;
22525;SDS011;11429;50.842;4.386;2022-11-21T12:23:52;13.50;;;5.00;;
22525;SDS011;11429;50.842;4.386;2022-11-21T12:34:54;13.57;;;5.85;;
22525;SDS011;11429;50.842;4.386;2022-11-21T12:45:38;17.98;;;5.45;;
22525;SDS011;11429;50.842;4.386;2022-11-21T13:01:09;20.20;;;6.95;;
22525;SDS011;11429;50.842;4.386;2022-11-21T13:04:10;12.80;;;5.85;;
22525;SDS011;11429;50.842;4.386;2022-11-21T13:06:41;12.93;;;6.18;;
22525;SDS011;11429;50.842;4.386;2022-11-21T13:09:11;12.18;;;4.50;;
22525;SDS011;11429;50.842;4.386;2022-11-21T13:19:51;10.48;;;4.00;;
22525;SDS011;11429;50.842;4.386;2022-11-21T13:25:09;12.50;;;4.40;;
22525;SDS011;11429;50.842;4.386;2022-11-21T13:27:39;8.50;;;3.88;;
22525;SDS011;11429;50.842;4.386;2022-11-21T13:32:41;8.80;;;3.33;;
22525;SDS011;11429;50.842;4.386;2022-11-21T13:35:43;10.27;;;4.15;;
22525;SDS011;11429;50.842;4.386;2022-11-21T13:38:19;11.25;;;3.53;;
22525;SDS011;11429;50.842;4.386;2022-11-21T13:40:44;10.07;;;3.38;;
22525;SDS011;11429;50.842;4.386;2022-11-21T13:45:56;8.23;;;2.45;;
22525;SDS011;11429;50.842;4.386;2022-11-21T13:51:36;10.52;;;2.47;;
22525;SDS011;11429;50.842;4.386;2022-11-21T13:56:53;8.75;;;2.60;;
22525;SDS011;11429;50.842;4.386;2022-11-21T14:08:19;11.20;;;3.00;;
22525;SDS011;11429;50.842;4.386;2022-11-21T14:10:50;10.38;;;2.25;;
22525;SDS011;11429;50.842;4.386;2022-11-21T14:13:38;7.13;;;2.08;;
22525;SDS011;11429;50.842;4.386;2022-11-21T14:18:54;10.93;;;2.42;;
22525;SDS011;11429;50.842;4.386;2022-11-21T14:21:25;8.95;;;2.45;;
22525;SDS011;11429;50.842;4.386;2022-11-21T14:23:53;6.15;;;1.63;;
22525;SDS011;11429;50.842;4.386;2022-11-21T14:26:29;7.05;;;2.63;;
22525;SDS011;11429;50.842;4.386;2022-11-21T14:31:48;10.93;;;2.17;;
22525;SDS011;11429;50.842;4.386;2022-11-21T14:34:24;12.52;;;2.58;;
22525;SDS011;11429;50.842;4.386;2022-11-21T14:36:50;6.32;;;1.92;;
22525;SDS011;11429;50.842;4.386;2022-11-21T14:39:17;9.30;;;2.22;;
22525;SDS011;11429;50.842;4.386;2022-11-21T14:41:51;7.00;;;2.25;;
22525;SDS011;11429;50.842;4.386;2022-11-21T14:44:21;10.10;;;2.15;;
22525;SDS011;11429;50.842;4.386;2022-11-21T14:46:47;7.35;;;2.22;;
22525;SDS011;11429;50.842;4.386;2022-11-21T14:49:21;10.80;;;2.78;;
22525;SDS011;11429;50.842;4.386;2022-11-21T14:54:16;9.68;;;2.30;;
22525;SDS011;11429;50.842;4.386;2022-11-21T14:56:48;5.70;;;1.92;;
22525;SDS011;11429;50.842;4.386;2022-11-21T14:59:45;7.18;;;1.77;;
22525;SDS011;11429;50.842;4.386;2022-11-21T15:02:11;9.65;;;2.55;;
22525;SDS011;11429;50.842;4.386;2022-11-21T15:04:46;8.30;;;2.35;;
22525;SDS011;11429;50.842;4.386;2022-11-21T15:07:19;10.95;;;2.38;;
22525;SDS011;11429;50.842;4.386;2022-11-21T15:09:50;7.22;;;2.65;;
22525;SDS011;11429;50.842;4.386;2022-11-21T15:12:59;6.75;;;2.50;;
22525;SDS011;11429;50.842;4.386;2022-11-21T15:17:48;10.80;;;2.80;;
22525;SDS011;11429;50.842;4.386;2022-11-21T15:20:36;9.10;;;2.42;;
22525;SDS011;11429;50.842;4.386;2022-11-21T15:23:02;10.73;;;2.67;;
22525;SDS011;11429;50.842;4.386;2022-11-21T15:25:30;9.75;;;3.08;;
22525;SDS011;11429;50.842;4.386;2022-11-21T15:28:13;10.25;;;2.30;;
22525;SDS011;11429;50.842;4.386;2022-11-21T15:30:40;7.30;;;2.10;;
22525;SDS011;11429;50.842;4.386;2022-11-21T15:33:08;9.70;;;2.60;;
22525;SDS011;11429;50.842;4.386;2022-11-21T15:41:01;9.32;;;2.20;;
22525;SDS011;11429;50.842;4.386;2022-11-21T15:46:24;11.77;;;3.90;;
22525;SDS011;11429;50.842;4.386;2022-11-21T15:48:52;8.48;;;3.05;;
22525;SDS011;11429;50.842;4.386;2022-11-21T15:54:04;12.68;;;3.17;;
22525;SDS011;11429;50.842;4.386;2022-11-21T15:56:32;9.90;;;2.80;;
22525;SDS011;11429;50.842;4.386;2022-11-21T15:58:58;7.90;;;2.97;;
22525;SDS011;11429;50.842;4.386;2022-11-21T16:01:24;8.25;;;2.85;;
22525;SDS011;11429;50.842;4.386;2022-11-21T16:04:11;10.63;;;2.85;;
22525;SDS011;11429;50.842;4.386;2022-11-21T16:06:40;10.63;;;3.00;;
22525;SDS011;11429;50.842;4.386;2022-11-21T16:09:07;11.15;;;2.78;;
22525;SDS011;11429;50.842;4.386;2022-11-21T16:11:34;9.20;;;2.63;;
22525;SDS011;11429;50.842;4.386;2022-11-21T16:14:07;13.93;;;2.90;;
22525;SDS011;11429;50.842;4.386;2022-11-21T16:16:37;7.97;;;2.53;;
22525;SDS011;11429;50.842;4.386;2022-11-21T16:19:04;8.98;;;2.45;;
22525;SDS011;11429;50.842;4.386;2022-11-21T16:21:30;10.77;;;2.67;;
22525;SDS011;11429;50.842;4.386;2022-11-21T16:23:56;8.50;;;2.63;;
22525;SDS011;11429;50.842;4.386;2022-11-21T16:26:21;10.90;;;2.88;;
22525;SDS011;11429;50.842;4.386;2022-11-21T16:28:55;11.85;;;2.92;;
22525;SDS011;11429;50.842;4.386;2022-11-21T16:31:22;13.30;;;3.08;;
22525;SDS011;11429;50.842;4.386;2022-11-21T16:33:50;13.10;;;3.05;;
22525;SDS011;11429;50.842;4.386;2022-11-21T16:36:19;10.30;;;2.35;;
22525;SDS011;11429;50.842;4.386;2022-11-21T16:38:47;12.65;;;2.85;;
22525;SDS011;11429;50.842;4.386;2022-11-21T16:41:13;11.13;;;3.50;;
22525;SDS011;11429;50.842;4.386;2022-11-21T16:43:46;17.25;;;4.15;;
22525;SDS011;11429;50.842;4.386;2022-11-21T16:46:15;9.32;;;3.30;;
22525;SDS011;11429;50.842;4.386;2022-11-21T16:48:42;15.40;;;4.03;;
22525;SDS011;11429;50.842;4.386;2022-11-21T16:51:12;13.52;;;3.85;;
22525;SDS011;11429;50.842;4.386;2022-11-21T16:53:45;15.35;;;4.22;;
22525;SDS011;11429;50.842;4.386;2022-11-21T16:56:12;14.27;;;4.10;;
22525;SDS011;11429;50.842;4.386;2022-11-21T16:58:39;15.18;;;4.30;;
22525;SDS011;11429;50.842;4.386;2022-11-21T17:01:15;17.00;;;4.70;;
22525;SDS011;11429;50.842;4.386;2022-11-21T17:03:46;15.65;;;4.57;;
22525;SDS011;11429;50.842;4.386;2022-11-21T17:06:14;13.27;;;4.68;;
22525;SDS011;11429;50.842;4.386;2022-11-21T17:08:46;11.70;;;3.72;;
22525;SDS011;11429;50.842;4.386;2022-11-21T17:11:16;10.75;;;3.53;;